createdAt,value
2022-11-17T00:02:11.046Z,80.30
2022-11-17T00:04:41.442Z,80.30
2022-11-17T00:07:12.062Z,80.40
2022-11-17T00:09:43.288Z,80.40
2022-11-17T00:12:32.853Z,80.40
2022-11-17T00:15:00.474Z,80.40
2022-11-17T00:17:28.578Z,80.50
2022-11-17T00:20:17.650Z,80.40
2022-11-17T00:22:53.518Z,80.40
2022-11-17T00:25:31.175Z,80.20
2022-11-17T00:28:02.011Z,80.20
2022-11-17T00:30:51.259Z,80.40
2022-11-17T00:33:48.823Z,80.30
2022-11-17T00:36:38.872Z,80.50
2022-11-17T00:39:11.205Z,80.80
2022-11-17T00:41:39.613Z,80.80
2022-11-17T00:44:08.077Z,80.90
2022-11-17T00:46:39.458Z,80.90
2022-11-17T00:49:11.684Z,81.00
2022-11-17T00:51:41.764Z,81.00
2022-11-17T00:54:15.269Z,81.30
2022-11-17T00:56:46.242Z,81.40
2022-11-17T00:59:18.297Z,81.50
2022-11-17T01:01:46.235Z,81.60
2022-11-17T01:04:15.248Z,81.60
2022-11-17T01:06:47.695Z,81.60
2022-11-17T01:09:23.712Z,81.60
2022-11-17T01:11:55.521Z,81.60
2022-11-17T01:14:26.606Z,81.90
2022-11-17T01:16:56.134Z,81.70
2022-11-17T01:19:24.153Z,81.70
2022-11-17T01:21:51.541Z,82.30
2022-11-17T01:24:19.678Z,82.00
2022-11-17T01:26:47.577Z,82.10
2022-11-17T01:29:19.217Z,82.00
2022-11-17T01:31:50.783Z,82.00
2022-11-17T01:34:23.758Z,81.70
2022-11-17T01:37:11.344Z,81.70
2022-11-17T01:39:41.669Z,81.50
2022-11-17T01:42:26.063Z,81.80
2022-11-17T01:45:22.567Z,81.80
2022-11-17T01:48:02.277Z,81.90
2022-11-17T01:50:41.838Z,81.90
2022-11-17T01:53:13.765Z,82.10
2022-11-17T01:56:02.354Z,82.00
2022-11-17T01:58:39.975Z,81.90
2022-11-17T02:01:07.655Z,81.50
2022-11-17T02:03:36.960Z,81.40
2022-11-17T02:06:11.223Z,81.50
2022-11-17T02:08:43.285Z,81.70
2022-11-17T02:11:14.589Z,82.00
2022-11-17T02:13:46.634Z,81.90
2022-11-17T02:16:18.045Z,82.30
2022-11-17T02:18:51.993Z,82.20
2022-11-17T02:21:46.711Z,82.40
2022-11-17T02:24:29.881Z,82.50
2022-11-17T02:27:38.121Z,82.60
2022-11-17T02:30:23.573Z,82.10
2022-11-17T02:33:36.825Z,82.30
2022-11-17T02:36:18.876Z,82.50
2022-11-17T02:39:14.524Z,82.40
2022-11-17T02:42:12.497Z,82.80
2022-11-17T02:44:58.613Z,83.00
2022-11-17T02:47:35.558Z,82.90
2022-11-17T02:50:17.254Z,83.00
2022-11-17T02:52:52.763Z,82.80
2022-11-17T02:55:39.347Z,82.80
2022-11-17T02:58:15.767Z,82.70
2022-11-17T03:01:24.379Z,82.50
2022-11-17T03:04:05.331Z,82.60
2022-11-17T03:07:04.970Z,82.70
2022-11-17T03:10:05.321Z,82.90
2022-11-17T03:12:43.655Z,82.90
2022-11-17T03:15:43.098Z,83.10
2022-11-17T03:18:36.194Z,83.10
2022-11-17T03:21:11.388Z,83.00
2022-11-17T03:23:54.758Z,83.10
2022-11-17T03:26:31.408Z,83.30
2022-11-17T03:29:07.378Z,83.50
2022-11-17T03:31:39.192Z,83.50
2022-11-17T03:34:14.368Z,83.70
2022-11-17T03:36:47.117Z,83.50
2022-11-17T03:39:31.708Z,83.60
2022-11-17T03:42:21.701Z,83.80
2022-11-17T03:44:55.087Z,83.90
2022-11-17T03:47:26.963Z,84.00
2022-11-17T03:50:10.109Z,83.90
2022-11-17T03:52:38.103Z,84.00
2022-11-17T03:55:10.314Z,84.20
2022-11-17T03:57:52.917Z,84.30
2022-11-17T04:00:20.281Z,84.30
2022-11-17T04:02:53.529Z,84.30
2022-11-17T04:05:23.858Z,84.40
2022-11-17T04:07:53.947Z,84.40
2022-11-17T04:13:29.338Z,85.10
2022-11-17T04:15:59.516Z,85.20
2022-11-17T04:18:27.977Z,85.40
2022-11-17T04:20:56.921Z,85.60
2022-11-17T04:23:26.150Z,85.40
2022-11-17T04:26:14.368Z,85.30
2022-11-17T04:28:49.586Z,85.30
2022-11-17T04:31:32.940Z,84.80
2022-11-17T04:34:05.946Z,84.90
2022-11-17T04:36:38.234Z,84.50
2022-11-17T04:39:08.405Z,84.90
2022-11-17T04:41:54.045Z,84.90
2022-11-17T04:44:24.674Z,84.90
2022-11-17T04:46:52.641Z,85.00
2022-11-17T04:49:21.934Z,85.00
2022-11-17T04:51:53.180Z,84.80
2022-11-17T04:54:27.311Z,85.00
2022-11-17T04:56:56.446Z,85.10
2022-11-17T04:59:26.793Z,84.90
2022-11-17T05:01:55.268Z,85.00
2022-11-17T05:04:46.390Z,84.80
2022-11-17T05:07:14.314Z,84.40
2022-11-17T05:09:41.550Z,84.20
2022-11-17T05:12:32.942Z,84.00
2022-11-17T05:15:03.431Z,83.60
2022-11-17T05:17:35.006Z,83.80
2022-11-17T05:20:02.861Z,84.00
2022-11-17T05:23:03.842Z,83.70
2022-11-17T05:25:35.701Z,83.30
2022-11-17T05:28:04.170Z,83.20
2022-11-17T05:30:35.372Z,83.00
2022-11-17T05:33:05.506Z,82.80
2022-11-17T05:35:34.187Z,83.10
2022-11-17T05:38:05.773Z,82.60
2022-11-17T05:40:36.501Z,82.60
2022-11-17T05:43:04.510Z,82.50
2022-11-17T05:45:35.876Z,82.30
2022-11-17T05:48:03.533Z,82.20
2022-11-17T05:50:31.459Z,82.20
2022-11-17T05:53:04.855Z,82.00
2022-11-17T05:55:35.710Z,81.50
2022-11-17T05:58:25.354Z,81.20
2022-11-17T06:00:54.257Z,81.50
2022-11-17T06:03:33.995Z,81.10
2022-11-17T06:06:04.257Z,81.40
2022-11-17T06:08:37.353Z,80.90
2022-11-17T06:11:08.645Z,80.90
2022-11-17T06:13:37.695Z,80.80
2022-11-17T06:16:17.733Z,80.90
2022-11-17T06:19:00.858Z,80.90
2022-11-17T06:22:04.397Z,80.70
2022-11-17T06:24:45.621Z,80.70
2022-11-17T06:27:17.480Z,80.40
2022-11-17T06:29:48.963Z,80.50
2022-11-17T06:32:21.336Z,80.60
2022-11-17T06:34:56.080Z,80.70
2022-11-17T06:37:27.447Z,80.80
2022-11-17T06:39:56.499Z,80.90
2022-11-17T06:45:49.778Z,81.10
2022-11-17T06:48:29.013Z,80.40
2022-11-17T06:51:04.095Z,80.60
2022-11-17T06:54:10.246Z,80.10
2022-11-17T06:56:50.456Z,80.30
2022-11-17T06:59:24.399Z,80.40
2022-11-17T07:02:11.356Z,80.20
2022-11-17T07:04:58.953Z,80.10
2022-11-17T07:07:32.023Z,80.00
2022-11-17T07:10:02.539Z,80.00
2022-11-17T07:12:31.668Z,80.20
2022-11-17T07:15:05.146Z,80.20
2022-11-17T07:17:58.278Z,80.20
2022-11-17T07:20:33.625Z,80.20
2022-11-17T07:23:04.842Z,80.10
2022-11-17T07:25:36.112Z,80.00
2022-11-17T07:28:16.855Z,80.30
2022-11-17T07:30:45.781Z,80.20
2022-11-17T07:33:14.878Z,80.30
2022-11-17T07:35:49.215Z,80.30
2022-11-17T07:38:21.632Z,80.50
2022-11-17T07:41:01.535Z,80.30
2022-11-17T07:43:35.489Z,80.10
2022-11-17T07:46:15.172Z,80.40
2022-11-17T07:48:43.974Z,80.60
2022-11-17T07:51:28.036Z,80.60
2022-11-17T07:54:31.824Z,80.50
2022-11-17T07:57:01.674Z,80.50
2022-11-17T07:59:29.933Z,80.70
2022-11-17T08:02:04.819Z,80.70
2022-11-17T08:04:58.186Z,80.40
2022-11-17T08:07:30.740Z,80.70
2022-11-17T08:10:11.239Z,80.50
2022-11-17T08:12:43.792Z,80.40
2022-11-17T08:15:12.260Z,80.50
2022-11-17T08:17:55.207Z,80.50
2022-11-17T08:20:48.107Z,80.50
2022-11-17T08:23:28.317Z,80.30
2022-11-17T08:26:27.706Z,80.30
2022-11-17T08:29:11.466Z,80.40
2022-11-17T08:32:08.118Z,80.20
2022-11-17T08:34:38.601Z,79.90
2022-11-17T08:37:08.811Z,79.70
2022-11-17T08:39:42.463Z,79.50
2022-11-17T08:42:14.755Z,78.90
2022-11-17T08:44:45.802Z,78.10
2022-11-17T08:47:27.961Z,78.30
2022-11-17T08:50:15.418Z,78.30
2022-11-17T08:52:50.202Z,78.00
2022-11-17T08:55:21.086Z,78.10
2022-11-17T08:57:58.875Z,77.90
2022-11-17T09:00:28.493Z,78.00
2022-11-17T09:02:56.330Z,77.80
2022-11-17T09:05:32.526Z,77.60
2022-11-17T09:08:22.753Z,77.20
2022-11-17T09:10:53.448Z,75.90
2022-11-17T09:13:56.193Z,75.60
2022-11-17T09:17:27.736Z,74.70
2022-11-17T09:20:35.966Z,74.10
2022-11-17T09:23:11.127Z,73.80
2022-11-17T09:25:39.523Z,73.60
2022-11-17T09:28:20.020Z,73.40
2022-11-17T09:30:55.571Z,74.40
2022-11-17T09:33:24.633Z,75.30
2022-11-17T09:35:56.919Z,76.20
2022-11-17T09:38:25.534Z,74.30
2022-11-17T09:40:59.017Z,74.40
2022-11-17T09:44:02.926Z,74.70
2022-11-17T09:46:55.216Z,73.20
2022-11-17T09:49:59.201Z,73.80
2022-11-17T09:53:14.532Z,73.20
2022-11-17T09:56:47.968Z,73.00
2022-11-17T10:02:32.187Z,73.20
2022-11-17T10:05:11.657Z,73.70
2022-11-17T10:07:46.281Z,74.20
2022-11-17T10:11:12.369Z,73.60
2022-11-17T10:13:47.768Z,73.10
2022-11-17T10:16:23.424Z,72.40
2022-11-17T10:18:56.701Z,72.70
2022-11-17T10:21:33.598Z,72.70
2022-11-17T10:24:01.777Z,72.20
2022-11-17T10:26:32.616Z,72.50
2022-11-17T10:29:30.054Z,73.00
2022-11-17T10:32:30.279Z,72.90
2022-11-17T10:35:18.000Z,72.90
2022-11-17T10:41:03.529Z,72.60
2022-11-17T10:43:58.633Z,73.00
2022-11-17T10:46:46.336Z,73.30
2022-11-17T10:49:43.354Z,73.20
2022-11-17T10:55:33.531Z,73.60
2022-11-17T10:58:45.460Z,73.20
2022-11-17T11:01:25.594Z,73.20
2022-11-17T11:04:09.429Z,73.50
2022-11-17T11:06:38.129Z,73.50
2022-11-17T11:09:36.284Z,73.60
2022-11-17T11:12:08.172Z,73.70
2022-11-17T11:15:08.201Z,73.70
2022-11-17T11:17:36.737Z,73.40
2022-11-17T11:20:04.897Z,73.40
2022-11-17T11:22:46.504Z,73.50
2022-11-17T11:34:03.341Z,73.80
2022-11-17T11:36:36.799Z,74.40
2022-11-17T11:39:32.820Z,74.40
2022-11-17T11:42:47.974Z,74.40
2022-11-17T11:48:44.969Z,74.30
2022-11-17T11:51:50.558Z,73.90
2022-11-17T11:54:51.096Z,74.10
2022-11-17T11:57:47.508Z,74.30
2022-11-17T12:00:20.947Z,73.80
2022-11-17T12:06:42.580Z,74.10
2022-11-17T12:09:46.757Z,73.80
2022-11-17T12:12:41.140Z,73.70
2022-11-17T12:15:23.963Z,73.80
2022-11-17T12:18:08.925Z,74.00
2022-11-17T12:20:47.828Z,74.30
2022-11-17T12:23:18.045Z,74.00
2022-11-17T12:25:54.561Z,74.20
2022-11-17T12:28:42.169Z,74.20
2022-11-17T12:31:34.245Z,74.20
2022-11-17T12:34:32.401Z,74.30
2022-11-17T12:37:29.128Z,74.40
2022-11-17T12:40:13.590Z,74.50
2022-11-17T12:43:16.449Z,74.40
2022-11-17T12:46:07.504Z,74.80
2022-11-17T12:48:52.349Z,74.90
2022-11-17T12:52:05.363Z,75.10
2022-11-17T12:54:50.492Z,75.20
2022-11-17T12:57:40.398Z,75.30
2022-11-17T13:00:43.145Z,75.40
2022-11-17T13:03:54.985Z,75.60
2022-11-17T13:06:36.748Z,75.60
2022-11-17T13:10:03.494Z,75.30
2022-11-17T13:12:36.899Z,75.70
2022-11-17T13:15:38.733Z,75.60
2022-11-17T13:18:42.034Z,75.70
2022-11-17T13:21:39.846Z,75.70
2022-11-17T13:24:19.504Z,75.90
2022-11-17T13:27:08.367Z,76.10
2022-11-17T13:29:36.468Z,76.40
2022-11-17T13:32:40.109Z,76.80
2022-11-17T13:35:29.824Z,77.20
2022-11-17T13:38:23.178Z,77.60
2022-11-17T13:40:53.896Z,77.90
2022-11-17T13:46:24.007Z,78.80
2022-11-17T13:49:00.556Z,79.40
2022-11-17T13:54:41.764Z,79.80
2022-11-17T13:57:41.844Z,80.10
2022-11-17T14:00:33.644Z,80.30
2022-11-17T14:03:26.290Z,80.50
2022-11-17T14:06:03.877Z,80.50
2022-11-17T14:08:41.907Z,80.70
2022-11-17T14:11:21.563Z,80.80
2022-11-17T14:13:53.047Z,80.90
2022-11-17T14:16:28.044Z,81.10
2022-11-17T14:19:04.954Z,81.10
2022-11-17T14:21:57.997Z,81.30
2022-11-17T14:24:48.998Z,81.60
2022-11-17T14:27:34.742Z,81.70
2022-11-17T14:30:35.025Z,81.90
2022-11-17T14:33:23.800Z,81.90
2022-11-17T14:35:57.722Z,82.10
2022-11-17T14:38:31.648Z,82.30
2022-11-17T14:41:05.518Z,82.30
2022-11-17T14:43:36.990Z,82.30
2022-11-17T14:46:11.569Z,82.30
2022-11-17T14:49:05.048Z,82.40
2022-11-17T14:51:38.914Z,82.50
2022-11-17T14:54:12.880Z,82.60
2022-11-17T14:57:00.094Z,82.70
2022-11-17T14:59:34.216Z,82.60
2022-11-17T15:02:06.111Z,82.70
2022-11-17T15:04:51.999Z,82.80
2022-11-17T15:07:23.200Z,82.80
2022-11-17T15:09:55.962Z,83.10
2022-11-17T15:12:24.006Z,83.20
2022-11-17T15:14:53.470Z,83.30
2022-11-17T15:17:25.927Z,83.30
2022-11-17T15:19:54.925Z,83.30
2022-11-17T15:22:31.285Z,83.30
2022-11-17T15:25:14.319Z,83.40
2022-11-17T15:29:10.447Z,83.50
2022-11-17T15:31:04.317Z,83.50
2022-11-17T15:34:19.955Z,83.50
2022-11-17T15:37:06.510Z,83.70
2022-11-17T15:39:43.069Z,83.80
2022-11-17T15:42:31.151Z,83.90
2022-11-17T15:45:30.326Z,83.90
2022-11-17T15:51:07.879Z,83.90
2022-11-17T15:54:22.529Z,84.00
2022-11-17T15:57:17.326Z,84.00
2022-11-17T15:59:53.849Z,84.40
2022-11-17T16:02:25.122Z,84.60
2022-11-17T16:04:58.770Z,84.90
2022-11-17T16:10:18.037Z,85.00
2022-11-17T16:12:53.965Z,85.20
2022-11-17T16:21:11.511Z,85.70
2022-11-17T16:23:48.619Z,86.10
2022-11-17T16:26:27.930Z,86.30
2022-11-17T16:29:20.525Z,86.50
2022-11-17T16:31:58.669Z,86.90
2022-11-17T16:34:35.018Z,87.20
2022-11-17T16:37:05.836Z,87.60
2022-11-17T16:39:42.886Z,88.00
2022-11-17T16:42:18.418Z,88.50
2022-11-17T16:44:46.489Z,88.80
2022-11-17T16:47:19.738Z,89.00
2022-11-17T16:50:05.095Z,89.10
2022-11-17T16:55:23.054Z,89.50
2022-11-17T16:57:54.491Z,89.50
2022-11-17T17:00:24.823Z,89.70
2022-11-17T17:02:55.184Z,90.00
2022-11-17T17:05:24.602Z,90.30
2022-11-17T17:08:08.865Z,90.60
2022-11-17T17:10:46.191Z,90.70
2022-11-17T17:13:18.518Z,91.20
2022-11-17T17:16:21.149Z,91.40
2022-11-17T17:18:49.123Z,91.70
2022-11-17T17:21:29.415Z,91.90
2022-11-17T17:24:07.189Z,91.90
2022-11-17T17:26:52.122Z,92.00
2022-11-17T17:29:38.890Z,92.10
2022-11-17T17:32:19.551Z,91.90
2022-11-17T17:35:02.615Z,92.00
2022-11-17T17:37:33.409Z,91.90
2022-11-17T17:40:04.466Z,92.00
2022-11-17T17:42:32.256Z,91.50
2022-11-17T17:44:59.954Z,91.50
2022-11-17T17:47:27.855Z,91.30
2022-11-17T17:50:04.655Z,91.10
2022-11-17T17:52:32.916Z,91.00
2022-11-17T17:55:00.844Z,90.80
2022-11-17T17:57:32.767Z,90.70
2022-11-17T18:00:05.587Z,90.70
2022-11-17T18:02:35.331Z,90.30
2022-11-17T18:05:06.025Z,90.20
2022-11-17T18:07:33.498Z,90.00
2022-11-17T18:10:02.615Z,89.90
2022-11-17T18:12:31.318Z,89.60
2022-11-17T18:14:59.703Z,89.60
2022-11-17T18:17:28.399Z,89.50
2022-11-17T18:19:57.545Z,89.40
2022-11-17T18:22:25.402Z,89.20
2022-11-17T18:24:58.328Z,89.00
2022-11-17T18:27:26.619Z,88.90
2022-11-17T18:29:54.508Z,88.60
2022-11-17T18:32:28.142Z,88.40
2022-11-17T18:34:55.949Z,88.10
2022-11-17T18:37:23.377Z,87.70
2022-11-17T18:39:52.696Z,87.70
2022-11-17T18:42:20.182Z,87.20
2022-11-17T18:44:52.391Z,87.30
2022-11-17T18:47:22.893Z,87.40
2022-11-17T18:49:56.686Z,87.40
2022-11-17T18:52:31.499Z,87.40
2022-11-17T18:54:59.619Z,87.30
2022-11-17T18:57:27.805Z,87.40
2022-11-17T18:59:55.071Z,87.50
2022-11-17T19:02:22.731Z,87.60
2022-11-17T19:04:57.034Z,87.70
2022-11-17T19:07:27.901Z,87.90
2022-11-17T19:09:55.155Z,87.80
2022-11-17T19:12:24.762Z,88.00
2022-11-17T19:14:55.585Z,87.70
2022-11-17T19:17:31.111Z,87.80
2022-11-17T19:19:58.617Z,87.10
2022-11-17T19:25:10.720Z,86.10
2022-11-17T19:27:38.944Z,85.90
2022-11-17T19:30:21.159Z,85.50
2022-11-17T19:32:48.614Z,85.10
2022-11-17T19:35:22.323Z,84.90
2022-11-17T19:37:50.075Z,85.00
2022-11-17T19:40:18.181Z,84.90
2022-11-17T19:42:58.631Z,84.70
2022-11-17T19:45:26.461Z,84.40
2022-11-17T19:47:54.313Z,83.80
2022-11-17T19:50:22.431Z,83.70
2022-11-17T19:52:49.993Z,83.20
2022-11-17T19:55:18.333Z,83.40
2022-11-17T19:57:45.632Z,83.10
2022-11-17T20:00:13.727Z,83.00
2022-11-17T20:02:41.866Z,82.80
2022-11-17T20:05:12.647Z,82.90
2022-11-17T20:07:42.359Z,82.70
2022-11-17T20:10:10.831Z,82.60
2022-11-17T20:12:40.935Z,82.70
2022-11-17T20:15:27.081Z,82.70
2022-11-17T20:18:02.595Z,82.50
2022-11-17T20:20:33.212Z,82.70
2022-11-17T20:23:01.277Z,82.70
2022-11-17T20:25:30.620Z,82.80
2022-11-17T20:27:59.528Z,82.40
2022-11-17T20:30:27.277Z,81.70
2022-11-17T20:32:54.817Z,81.60
2022-11-17T20:35:22.739Z,80.50
2022-11-17T20:37:50.010Z,80.60
2022-11-17T20:40:17.458Z,79.80
2022-11-17T20:42:46.251Z,79.60
2022-11-17T20:45:14.025Z,79.40
2022-11-17T20:47:44.009Z,79.60
2022-11-17T20:50:14.737Z,78.90
2022-11-17T20:52:42.437Z,78.60
2022-11-17T20:55:10.669Z,77.40
2022-11-17T20:57:39.004Z,77.30
2022-11-17T21:00:11.114Z,76.30
2022-11-17T21:02:39.448Z,76.40
2022-11-17T21:05:07.468Z,76.20
2022-11-17T21:07:41.791Z,75.80
2022-11-17T21:10:12.348Z,76.00
2022-11-17T21:12:39.895Z,75.50
2022-11-17T21:15:08.005Z,75.30
2022-11-17T21:17:55.214Z,75.20
2022-11-17T21:20:33.467Z,75.20
2022-11-17T21:23:06.348Z,74.30
2022-11-17T21:25:39.214Z,74.20
2022-11-17T21:28:07.170Z,74.10
2022-11-17T21:30:39.435Z,73.60
2022-11-17T21:33:19.731Z,73.50
2022-11-17T21:35:47.710Z,73.10
2022-11-17T21:38:15.426Z,73.00
2022-11-17T21:40:45.541Z,73.20
2022-11-17T21:43:13.477Z,73.20
2022-11-17T21:45:50.385Z,72.60
2022-11-17T21:48:21.205Z,72.90
2022-11-17T21:50:49.278Z,73.20
2022-11-17T21:53:18.322Z,73.30
2022-11-17T21:55:46.259Z,72.90
2022-11-17T21:58:15.709Z,72.80
2022-11-17T22:00:45.492Z,73.10
2022-11-17T22:03:15.759Z,73.20
2022-11-17T22:06:20.732Z,73.20
2022-11-17T22:08:54.980Z,72.10
2022-11-17T22:11:40.559Z,72.40
2022-11-17T22:14:14.100Z,72.50
2022-11-17T22:16:46.929Z,72.40
2022-11-17T22:19:17.290Z,72.10
2022-11-17T22:21:50.084Z,72.10
2022-11-17T22:24:18.241Z,71.70
2022-11-17T22:26:50.613Z,72.00
2022-11-17T22:29:24.880Z,71.90
2022-11-17T22:31:55.604Z,71.50
2022-11-17T22:34:28.990Z,70.90
2022-11-17T22:36:57.470Z,70.50
2022-11-17T22:39:27.902Z,70.80
2022-11-17T22:41:58.568Z,71.40
2022-11-17T22:44:25.778Z,71.70
2022-11-17T22:46:57.712Z,71.70
2022-11-17T22:49:27.767Z,71.70
2022-11-17T22:52:05.819Z,71.10
2022-11-17T22:54:38.036Z,71.30
2022-11-17T22:57:05.288Z,71.80
2022-11-17T22:59:33.028Z,71.00
2022-11-17T23:02:01.171Z,71.30
2022-11-17T23:04:31.368Z,71.10
2022-11-17T23:06:59.915Z,70.90
2022-11-17T23:09:28.072Z,71.20
2022-11-17T23:11:59.139Z,71.40
2022-11-17T23:14:26.367Z,71.40
2022-11-17T23:16:53.710Z,71.40
2022-11-17T23:19:23.769Z,71.30
2022-11-17T23:21:51.216Z,71.20
2022-11-17T23:24:20.083Z,71.50
2022-11-17T23:26:50.940Z,71.60
2022-11-17T23:29:18.543Z,71.70
2022-11-17T23:31:46.386Z,71.50
2022-11-17T23:34:14.240Z,71.70
2022-11-17T23:36:43.489Z,72.10
2022-11-17T23:39:11.054Z,71.90
2022-11-17T23:41:38.393Z,72.30
2022-11-17T23:44:08.994Z,71.80
2022-11-17T23:46:36.995Z,71.70
2022-11-17T23:49:10.827Z,71.70
2022-11-17T23:51:47.553Z,71.90
2022-11-17T23:54:15.526Z,71.00
2022-11-17T23:56:50.807Z,70.90
2022-11-17T23:59:22.093Z,70.80
